Time;durP1;ratioP1;P1;durP2;ratioP2;P2;SDS_P1;SDS_P2;PMS_P1;PMS_P2;Temp;Humidity;BMP_temperature;BMP_pressure;BME280_temperature;BME280_humidity;BME280_pressure;Samples;Min_cycle;Max_cycle;Signal;HPM_P1;HPM_P2
2023/02/19 00:00:58;;;;;;;30.25;17.48;;;9.30;99.90;;;;;;5065876;28;20044;-73
2023/02/19 00:03:23;;;;;;;36.90;19.17;;;9.30;99.90;;;;;;5070663;28;20032;-73
2023/02/19 00:05:49;;;;;;;38.20;17.27;;;9.20;99.90;;;;;;5071987;28;20029;-73
2023/02/19 00:08:14;;;;;;;31.67;16.30;;;9.20;99.90;;;;;;5062441;28;20721;-73
2023/02/19 00:10:40;;;;;;;25.50;14.65;;;9.30;99.90;;;;;;5071004;28;20416;-75
2023/02/19 00:13:05;;;;;;;34.30;15.52;;;9.30;99.90;;;;;;5070538;28;20052;-73
2023/02/19 00:15:32;;;;;;;23.80;13.00;;;9.30;99.90;;;;;;5072012;28;20524;-73
2023/02/19 00:17:57;;;;;;;31.95;14.70;;;9.20;99.90;;;;;;5071001;28;20055;-73
2023/02/19 00:20:23;;;;;;;28.63;13.98;;;9.20;99.90;;;;;;5070527;28;20040;-73
2023/02/19 00:22:48;;;;;;;30.65;14.07;;;9.30;99.90;;;;;;5070201;28;20076;-73
2023/02/19 00:25:14;;;;;;;23.80;12.88;;;9.30;99.90;;;;;;5071455;28;20384;-73
2023/02/19 00:27:39;;;;;;;35.95;14.38;;;9.30;99.90;;;;;;5062151;28;20028;-73
2023/02/19 00:30:05;;;;;;;29.95;13.90;;;9.30;99.90;;;;;;5070319;28;20044;-73
2023/02/19 00:32:31;;;;;;;24.90;14.40;;;9.20;99.90;;;;;;5062625;28;20051;-73
2023/02/19 00:34:56;;;;;;;28.08;13.93;;;9.20;99.90;;;;;;5065198;28;20040;-75
2023/02/19 00:37:22;;;;;;;25.80;14.15;;;9.20;99.90;;;;;;5071615;28;20082;-73
2023/02/19 00:39:47;;;;;;;27.50;13.57;;;9.20;99.90;;;;;;5071641;28;20078;-73
2023/02/19 00:42:13;;;;;;;32.47;14.05;;;9.20;99.90;;;;;;5071483;28;20458;-73
2023/02/19 00:44:38;;;;;;;29.58;14.05;;;9.20;99.90;;;;;;5053542;28;20087;-73
2023/02/19 00:47:04;;;;;;;32.10;13.95;;;9.20;99.90;;;;;;5071404;28;20542;-73
2023/02/19 00:49:30;;;;;;;29.95;15.57;;;9.20;99.90;;;;;;5069995;28;20040;-73
2023/02/19 00:51:56;;;;;;;34.35;14.27;;;9.30;99.90;;;;;;5069741;28;20048;-73
2023/02/19 00:54:21;;;;;;;29.05;14.73;;;9.20;99.90;;;;;;5053088;28;20048;-73
2023/02/19 00:56:47;;;;;;;31.95;14.98;;;9.30;99.90;;;;;;5071367;28;20115;-73
2023/02/19 00:59:14;;;;;;;31.42;14.18;;;9.20;99.90;;;;;;5069916;28;20040;-73
2023/02/19 01:01:40;;;;;;;27.35;14.88;;;9.20;99.90;;;;;;5070006;28;20028;-73
2023/02/19 01:04:05;;;;;;;29.98;13.90;;;9.20;99.90;;;;;;5044947;28;20488;-76
2023/02/19 01:06:31;;;;;;;27.45;14.25;;;9.20;99.90;;;;;;5070168;28;20503;-75
2023/02/19 01:08:57;;;;;;;24.42;14.02;;;9.20;99.90;;;;;;5071386;28;20396;-73
2023/02/19 01:11:23;;;;;;;30.92;13.95;;;9.10;99.90;;;;;;5069683;28;20043;-73
2023/02/19 01:13:48;;;;;;;32.30;14.07;;;9.20;99.90;;;;;;5069194;28;20040;-73
2023/02/19 01:16:15;;;;;;;31.30;14.63;;;9.20;99.90;;;;;;5069899;28;20044;-73
2023/02/19 01:18:41;;;;;;;30.92;15.32;;;9.20;99.90;;;;;;5070941;28;20045;-73
2023/02/19 01:21:19;;;;;;;39.15;16.88;;;9.20;99.90;;;;;;5069724;28;20439;-74
2023/02/19 01:23:45;;;;;;;26.50;13.80;;;9.20;99.90;;;;;;5070963;28;20032;-74
2023/02/19 01:26:16;;;;;;;34.38;16.95;;;9.10;99.90;;;;;;5070809;28;20105;-74
2023/02/19 01:28:42;;;;;;;28.13;14.55;;;9.20;99.90;;;;;;5069804;28;20119;-73
2023/02/19 01:31:15;;;;;;;37.38;16.08;;;9.20;99.90;;;;;;5069875;28;20198;-73
2023/02/19 01:33:47;;;;;;;33.05;16.20;;;9.20;99.90;;;;;;5069550;28;20396;-73
2023/02/19 01:36:13;;;;;;;30.15;16.65;;;9.10;99.90;;;;;;5069718;28;20049;-74
2023/02/19 01:38:39;;;;;;;34.78;15.85;;;9.10;99.90;;;;;;5070810;28;20040;-73
2023/02/19 01:41:06;;;;;;;25.48;14.90;;;9.20;99.90;;;;;;5069779;28;20036;-74
2023/02/19 01:43:33;;;;;;;32.67;15.10;;;9.20;99.90;;;;;;5069604;28;20091;-74
2023/02/19 01:45:59;;;;;;;29.20;15.05;;;9.10;99.90;;;;;;5052588;28;20041;-73
2023/02/19 01:48:37;;;;;;;14.95;8.13;;;9.20;99.90;;;;;;5069392;28;20036;-74
2023/02/19 01:51:05;;;;;;;4.25;2.42;;;9.00;99.90;;;;;;5069547;28;20041;-73
2023/02/19 01:53:35;;;;;;;7.32;2.47;;;8.50;99.90;;;;;;5068923;28;20132;-74
2023/02/19 01:56:01;;;;;;;6.70;1.52;;;8.20;99.90;;;;;;5069171;28;20059;-74
2023/02/19 01:58:30;;;;;;;4.05;1.30;;;8.00;99.90;;;;;;5069139;28;20044;-73
2023/02/19 02:00:57;;;;;;;4.28;1.60;;;7.80;99.90;;;;;;5052375;28;20097;-73
2023/02/19 02:03:23;;;;;;;4.95;1.98;;;7.60;99.90;;;;;;5069063;28;20059;-74
2023/02/19 02:06:04;;;;;;;9.80;3.38;;;7.50;99.90;;;;;;5069356;28;20431;-74
2023/02/19 02:11:15;;;;;;;5.35;3.20;;;7.40;99.90;;;;;;5070576;28;20127;-73
2023/02/19 02:13:41;;;;;;;9.98;2.58;;;7.30;99.90;;;;;;5068998;28;20076;-73
2023/02/19 02:16:14;;;;;;;6.25;2.17;;;7.30;99.90;;;;;;5069362;28;20044;-73
2023/02/19 02:18:51;;;;;;;6.75;2.38;;;7.30;99.90;;;;;;5069011;28;20055;-74
2023/02/19 02:21:46;;;;;;;2.85;0.82;;;7.30;99.90;;;;;;5068919;28;20127;-73
2023/02/19 02:24:20;;;;;;;1.88;0.70;;;7.20;99.90;;;;;;5070456;28;20092;-73
2023/02/19 02:27:14;;;;;;;1.20;0.80;;;7.10;99.90;;;;;;5072848;28;20537;-74
2023/02/19 02:29:58;;;;;;;1.80;1.25;;;7.10;99.90;;;;;;5072771;28;20037;-76
2023/02/19 02:32:29;;;;;;;2.90;0.90;;;7.20;99.90;;;;;;5055887;28;20045;-73
2023/02/19 02:35:04;;;;;;;2.40;0.93;;;7.10;99.90;;;;;;5072633;28;20041;-74
2023/02/19 02:37:34;;;;;;;1.55;0.95;;;7.10;99.90;;;;;;5072529;28;20048;-73
2023/02/19 02:40:01;;;;;;;1.60;1.00;;;7.10;99.90;;;;;;5072348;28;20041;-73
2023/02/19 02:42:27;;;;;;;3.13;1.30;;;7.00;99.90;;;;;;5073467;28;20044;-74
2023/02/19 02:47:57;;;;;;;8.23;3.90;;;7.00;99.90;;;;;;5072214;28;20076;-73
2023/02/19 02:50:29;;;;;;;8.00;4.32;;;7.10;99.90;;;;;;5055738;28;20059;-74
2023/02/19 02:55:50;;;;;;;10.40;4.32;;;7.10;99.90;;;;;;5071900;28;20527;-73
2023/02/19 02:58:18;;;;;;;14.20;8.10;;;7.00;99.90;;;;;;5055467;28;20082;-74
2023/02/19 03:03:37;;;;;;;6.20;3.85;;;7.00;99.90;;;;;;5071973;28;20044;-74
2023/02/19 03:06:06;;;;;;;11.20;4.15;;;7.00;99.90;;;;;;5055194;28;20037;-74
2023/02/19 03:08:50;;;;;;;8.80;4.18;;;7.00;99.90;;;;;;5073316;28;20416;-73
2023/02/19 03:19:57;;;;;;;3.67;2.60;;;7.00;99.90;;;;;;5071555;28;20045;-74
2023/02/19 03:22:29;;;;;;;3.90;2.67;;;6.90;99.90;;;;;;5071718;28;20036;-74
2023/02/19 03:27:48;;;;;;;4.13;2.60;;;6.80;99.90;;;;;;5071519;28;20052;-73
2023/02/19 03:30:21;;;;;;;4.95;2.80;;;6.80;99.90;;;;;;5071396;28;20036;-74
2023/02/19 03:32:56;;;;;;;5.15;3.00;;;6.80;99.90;;;;;;5072930;28;20047;-74
2023/02/19 03:35:26;;;;;;;3.63;2.65;;;6.80;99.90;;;;;;5070943;28;20067;-74
2023/02/19 03:38:00;;;;;;;5.32;3.85;;;6.70;99.90;;;;;;5071308;28;20442;-74
2023/02/19 03:40:28;;;;;;;5.35;3.85;;;6.80;99.90;;;;;;5072566;28;20399;-74
2023/02/19 03:43:12;;;;;;;4.88;3.30;;;6.90;99.90;;;;;;5071319;28;20037;-74
2023/02/19 03:45:53;;;;;;;11.00;5.03;;;6.90;99.90;;;;;;5071154;28;20515;-74
2023/02/19 03:48:28;;;;;;;8.85;4.60;;;6.80;99.90;;;;;;5071277;28;20043;-74
2023/02/19 03:51:12;;;;;;;8.65;4.15;;;6.80;99.90;;;;;;5071048;28;20113;-74
2023/02/19 03:54:10;;;;;;;7.03;4.28;;;6.80;99.90;;;;;;5070696;28;20044;-74
2023/02/19 03:57:20;;;;;;;5.82;3.92;;;6.90;99.90;;;;;;5066532;28;20531;-74
2023/02/19 03:59:52;;;;;;;6.63;4.90;;;6.90;99.90;;;;;;5061600;28;20048;-73
2023/02/19 04:02:27;;;;;;;7.82;4.38;;;6.80;99.90;;;;;;5071020;28;20109;-74
2023/02/19 04:05:13;;;;;;;7.22;4.85;;;6.90;99.90;;;;;;5072006;28;20043;-74
2023/02/19 04:07:44;;;;;;;9.23;4.57;;;6.90;99.90;;;;;;5070639;28;20048;-73
2023/02/19 04:10:10;;;;;;;7.45;4.65;;;6.90;99.90;;;;;;5070687;28;20048;-74
2023/02/19 04:12:42;;;;;;;9.05;5.32;;;6.80;99.90;;;;;;5071784;28;20396;-74
2023/02/19 04:15:13;;;;;;;7.32;4.45;;;6.80;99.90;;;;;;5071907;28;20041;-73
2023/02/19 04:18:07;;;;;;;9.02;5.53;;;6.80;99.90;;;;;;5053947;28;20143;-74
2023/02/19 04:20:41;;;;;;;10.77;6.00;;;6.80;99.90;;;;;;5069383;28;20102;-74
2023/02/19 04:23:07;;;;;;;11.02;6.32;;;6.80;99.90;;;;;;5053570;28;20040;-74
2023/02/19 04:25:34;;;;;;;9.77;5.30;;;6.80;99.90;;;;;;5070207;28;20063;-73
2023/02/19 04:28:00;;;;;;;8.18;5.38;;;6.70;99.90;;;;;;5070279;28;20044;-73
2023/02/19 04:30:26;;;;;;;14.48;8.05;;;6.80;99.90;;;;;;5070544;28;20076;-73
2023/02/19 04:32:51;;;;;;;15.32;6.97;;;6.80;99.90;;;;;;5069906;28;20083;-74
2023/02/19 04:35:17;;;;;;;11.30;6.82;;;6.60;99.90;;;;;;5053411;28;20043;-74
2023/02/19 04:37:42;;;;;;;12.77;6.47;;;6.70;99.90;;;;;;5071564;28;20044;-74
2023/02/19 04:40:09;;;;;;;11.57;6.35;;;6.50;99.90;;;;;;5070091;28;20415;-73
2023/02/19 04:42:34;;;;;;;8.70;4.93;;;6.60;99.90;;;;;;5069747;28;20037;-73
2023/02/19 04:45:00;;;;;;;8.93;5.63;;;6.60;99.90;;;;;;5071228;28;20040;-73
2023/02/19 04:47:25;;;;;;;8.73;4.55;;;6.50;99.90;;;;;;5070489;28;20445;-74
2023/02/19 04:49:51;;;;;;;5.10;3.17;;;6.50;99.90;;;;;;5071324;28;20128;-74
2023/02/19 04:52:16;;;;;;;7.05;2.92;;;6.30;99.90;;;;;;5067671;28;20041;-74
2023/02/19 04:54:42;;;;;;;11.40;5.60;;;6.30;99.90;;;;;;5051086;28;20098;-74
2023/02/19 04:57:07;;;;;;;9.82;4.60;;;6.20;99.90;;;;;;5051291;28;20079;-74
2023/02/19 04:59:33;;;;;;;8.35;3.97;;;6.20;99.90;;;;;;5049953;28;20518;-73
2023/02/19 05:01:58;;;;;;;9.43;4.10;;;6.00;99.90;;;;;;5049689;28;20041;-74
2023/02/19 05:04:24;;;;;;;10.32;4.07;;;6.10;99.90;;;;;;5049429;28;20037;-73
2023/02/19 05:06:49;;;;;;;10.68;3.75;;;6.00;99.90;;;;;;5049960;28;20029;-73
2023/02/19 05:09:15;;;;;;;11.18;4.60;;;6.00;99.90;;;;;;5049691;28;20501;-73
2023/02/19 05:11:41;;;;;;;15.98;5.53;;;6.10;99.90;;;;;;5049607;28;20052;-73
2023/02/19 05:14:06;;;;;;;11.43;4.85;;;6.10;99.90;;;;;;5049448;28;20120;-73
2023/02/19 05:16:32;;;;;;;13.55;5.22;;;6.00;99.90;;;;;;5050831;28;20063;-74
2023/02/19 05:18:58;;;;;;;9.52;4.90;;;6.00;99.90;;;;;;5049528;28;20044;-73
2023/02/19 05:21:23;;;;;;;4.15;2.20;;;6.10;99.90;;;;;;5049599;28;20037;-74
2023/02/19 05:23:49;;;;;;;4.38;2.50;;;6.00;99.90;;;;;;5049340;28;20036;-74
2023/02/19 05:26:18;;;;;;;3.45;2.28;;;5.90;99.90;;;;;;5087492;22;20135;-77
2023/02/19 05:28:50;;;;;;;3.97;2.70;;;6.00;99.90;;;;;;5071492;28;20445;-76
2023/02/19 05:31:16;;;;;;;4.40;2.97;;;6.00;99.90;;;;;;5071282;28;20163;-77
2023/02/19 05:33:43;;;;;;;4.30;2.50;;;6.00;99.90;;;;;;5071242;28;20044;-77
2023/02/19 05:36:11;;;;;;;4.82;2.97;;;5.90;99.90;;;;;;5070149;28;20226;-77
2023/02/19 05:38:37;;;;;;;3.85;2.50;;;5.90;99.90;;;;;;5071468;28;20047;-77
2023/02/19 05:41:18;;;;;;;5.68;3.10;;;5.90;99.90;;;;;;5053259;28;20114;-77
2023/02/19 05:43:45;;;;;;;5.43;3.50;;;5.90;99.90;;;;;;5070061;28;20523;-77
2023/02/19 05:46:13;;;;;;;3.92;2.80;;;6.00;99.90;;;;;;5071273;28;20037;-77
2023/02/19 05:48:39;;;;;;;4.78;3.00;;;6.00;99.90;;;;;;5071381;28;20032;-76
2023/02/19 05:51:11;;;;;;;4.65;2.53;;;5.90;99.90;;;;;;5070265;28;20110;-76
2023/02/19 05:53:37;;;;;;;5.05;2.53;;;5.80;99.90;;;;;;5070997;28;20513;-77
2023/02/19 05:56:03;;;;;;;4.50;2.38;;;6.00;99.90;;;;;;5069838;28;20033;-77
2023/02/19 05:58:29;;;;;;;4.03;2.38;;;5.80;99.90;;;;;;5054751;28;20496;-76
2023/02/19 06:00:55;;;;;;;4.88;1.98;;;5.80;99.90;;;;;;5073813;28;20080;-77
2023/02/19 06:03:21;;;;;;;3.88;2.00;;;5.90;99.90;;;;;;5074881;28;20451;-77
2023/02/19 06:05:47;;;;;;;4.95;2.30;;;5.90;99.90;;;;;;5073970;28;20040;-77
2023/02/19 06:08:14;;;;;;;3.15;2.15;;;5.90;99.90;;;;;;5075028;28;20033;-77
2023/02/19 06:10:40;;;;;;;4.78;2.88;;;6.00;99.90;;;;;;5074874;28;20063;-76
2023/02/19 06:13:09;;;;;;;5.45;2.40;;;6.00;99.90;;;;;;5074857;28;20032;-77
2023/02/19 06:15:36;;;;;;;4.35;2.25;;;5.90;99.90;;;;;;5074987;28;20048;-77
2023/02/19 06:18:02;;;;;;;5.80;2.40;;;5.90;99.90;;;;;;5073531;28;20066;-77
2023/02/19 06:20:28;;;;;;;4.68;2.00;;;6.00;99.90;;;;;;5074762;28;20119;-77
2023/02/19 06:22:54;;;;;;;3.70;2.15;;;5.90;99.90;;;;;;5074443;28;20028;-77
2023/02/19 06:25:20;;;;;;;6.75;2.33;;;5.80;99.90;;;;;;5074443;28;20032;-77
2023/02/19 06:27:45;;;;;;;4.30;1.83;;;5.80;99.90;;;;;;5073659;28;20071;-77
2023/02/19 06:30:11;;;;;;;5.57;2.05;;;5.80;99.90;;;;;;5074781;28;20044;-77
2023/02/19 06:32:37;;;;;;;8.25;2.33;;;5.80;99.90;;;;;;5056526;28;20544;-77
2023/02/19 06:35:03;;;;;;;5.10;1.98;;;5.90;99.90;;;;;;5073167;28;20040;-76
2023/02/19 06:37:29;;;;;;;7.38;2.35;;;5.80;99.90;;;;;;5073181;28;20389;-77
2023/02/19 06:39:54;;;;;;;7.80;2.17;;;5.80;99.90;;;;;;5073006;28;20098;-76
2023/02/19 06:42:20;;;;;;;7.75;2.72;;;5.80;99.90;;;;;;5072877;28;20052;-76
2023/02/19 06:44:46;;;;;;;6.60;2.38;;;5.70;99.90;;;;;;5072807;28;20044;-76
2023/02/19 06:47:11;;;;;;;6.60;2.47;;;5.60;99.90;;;;;;5072900;28;20466;-76
2023/02/19 06:49:39;;;;;;;5.65;2.10;;;5.70;99.90;;;;;;5073036;28;20049;-76
2023/02/19 06:52:04;;;;;;;5.03;2.50;;;5.70;99.90;;;;;;5072643;28;20032;-77
2023/02/19 06:54:32;;;;;;;6.30;2.00;;;5.70;99.90;;;;;;5072577;28;20098;-76
2023/02/19 06:56:58;;;;;;;5.68;2.40;;;5.80;99.90;;;;;;5074216;28;20090;-76
2023/02/19 06:59:24;;;;;;;4.75;2.13;;;5.80;99.90;;;;;;5056011;28;20620;-76
2023/02/19 07:01:50;;;;;;;6.28;2.30;;;5.70;99.90;;;;;;5072853;28;20041;-76
2023/02/19 07:04:15;;;;;;;5.25;2.15;;;5.80;99.90;;;;;;5072412;28;20512;-76
2023/02/19 07:06:41;;;;;;;4.47;2.88;;;5.70;99.90;;;;;;5073838;28;20067;-76
2023/02/19 07:09:08;;;;;;;5.10;2.35;;;5.80;99.90;;;;;;5072647;28;20044;-76
2023/02/19 07:11:35;;;;;;;6.70;2.42;;;5.80;99.90;;;;;;5071782;28;20036;-76
2023/02/19 07:14:03;;;;;;;5.03;2.15;;;5.80;99.90;;;;;;5073650;28;20043;-76
2023/02/19 07:16:29;;;;;;;6.85;2.20;;;5.80;99.90;;;;;;5072385;28;20119;-76
2023/02/19 07:18:59;;;;;;;7.03;2.30;;;5.80;99.90;;;;;;5072369;28;20064;-76
2023/02/19 07:21:25;;;;;;;5.70;2.22;;;5.90;99.90;;;;;;5072243;28;20036;-76
2023/02/19 07:23:51;;;;;;;5.95;2.25;;;6.00;99.90;;;;;;5073593;28;20046;-77
2023/02/19 07:26:18;;;;;;;4.55;2.50;;;6.00;99.90;;;;;;5073510;28;20404;-76
2023/02/19 07:28:48;;;;;;;8.18;2.38;;;6.00;99.90;;;;;;5055784;28;20076;-76
2023/02/19 07:31:16;;;;;;;6.15;2.05;;;6.10;99.90;;;;;;5072213;28;20047;-76
2023/02/19 07:33:43;;;;;;;5.32;2.20;;;6.10;99.90;;;;;;5071906;28;20123;-77
2023/02/19 07:36:08;;;;;;;6.32;2.10;;;6.30;99.90;;;;;;5071986;28;20044;-76
2023/02/19 07:38:34;;;;;;;6.63;2.15;;;6.20;99.90;;;;;;5073498;28;20507;-76
2023/02/19 07:41:02;;;;;;;11.48;3.00;;;6.40;99.90;;;;;;5071601;28;20503;-76
2023/02/19 07:43:32;;;;;;;9.23;3.55;;;6.50;99.90;;;;;;5071404;28;20044;-76
2023/02/19 07:45:58;;;;;;;5.65;2.13;;;6.50;99.90;;;;;;5073152;28;20040;-76
2023/02/19 07:48:23;;;;;;;6.50;3.00;;;6.60;99.90;;;;;;5071771;28;20439;-76
2023/02/19 07:50:57;;;;;;;5.93;2.72;;;6.60;99.90;;;;;;5071808;28;20051;-76
2023/02/19 07:53:25;;;;;;;6.03;2.80;;;6.70;99.90;;;;;;5071508;28;20040;-76
2023/02/19 07:55:51;;;;;;;8.98;3.35;;;6.70;99.90;;;;;;5073001;28;20048;-76
2023/02/19 07:58:16;;;;;;;9.52;4.13;;;6.70;99.90;;;;;;5072902;28;20522;-76
2023/02/19 08:00:42;;;;;;;10.02;4.15;;;6.80;99.90;;;;;;5072703;28;20037;-76
2023/02/19 08:03:08;;;;;;;10.38;4.55;;;6.90;99.90;;;;;;5071207;28;20032;-77
2023/02/19 08:05:37;;;;;;;9.30;5.22;;;7.00;99.90;;;;;;5064599;28;20381;-77
2023/02/19 08:08:05;;;;;;;9.23;5.47;;;7.20;99.90;;;;;;5053082;28;20035;-78
2023/02/19 08:13:21;;;;;;;10.70;4.30;;;7.60;99.90;;;;;;5071983;28;20488;-79
2023/02/19 08:15:51;;;;;;;14.02;4.80;;;7.60;99.90;;;;;;5071011;28;20047;-79
2023/02/19 08:18:19;;;;;;;7.45;3.85;;;7.70;99.90;;;;;;5071150;28;20044;-78
2023/02/19 08:20:45;;;;;;;13.07;6.45;;;7.70;99.90;;;;;;5072324;28;20044;-78
2023/02/19 08:23:11;;;;;;;16.80;7.70;;;7.80;99.90;;;;;;5070738;28;20603;-78
2023/02/19 08:25:38;;;;;;;14.00;5.88;;;7.90;99.90;;;;;;5070539;28;20646;-77
2023/02/19 08:28:05;;;;;;;9.40;4.60;;;8.10;99.90;;;;;;5070628;28;20032;-77
2023/02/19 08:30:32;;;;;;;12.23;5.35;;;8.10;99.90;;;;;;5070989;28;20078;-77
2023/02/19 08:32:59;;;;;;;11.65;4.00;;;8.20;99.90;;;;;;5070319;28;20094;-77
2023/02/19 08:35:25;;;;;;;8.65;3.70;;;8.40;99.90;;;;;;5072078;28;20093;-77
2023/02/19 08:37:55;;;;;;;7.05;2.85;;;8.40;99.90;;;;;;5072001;28;20049;-78
2023/02/19 08:40:20;;;;;;;5.60;2.35;;;8.70;99.90;;;;;;5070467;28;20472;-78
2023/02/19 08:42:46;;;;;;;4.20;1.95;;;8.70;99.90;;;;;;5070318;28;20119;-79
2023/02/19 08:45:12;;;;;;;4.10;2.50;;;8.90;99.90;;;;;;5054260;28;20037;-79
2023/02/19 08:47:38;;;;;;;4.13;1.70;;;9.00;99.90;;;;;;5070639;28;20050;-77
2023/02/19 08:50:05;;;;;;;5.93;2.40;;;9.00;99.90;;;;;;5071771;28;20098;-78
2023/02/19 08:52:32;;;;;;;7.40;2.30;;;8.90;99.90;;;;;;5071478;28;20072;-78
2023/02/19 08:54:57;;;;;;;5.13;2.25;;;8.80;99.90;;;;;;5071308;28;20094;-78
2023/02/19 08:57:23;;;;;;;5.15;2.80;;;8.70;99.90;;;;;;5068989;28;20036;-78
2023/02/19 08:59:49;;;;;;;5.97;2.35;;;8.60;99.90;;;;;;5053051;28;20486;-76
2023/02/19 09:02:15;;;;;;;4.15;2.28;;;8.50;99.90;;;;;;5071374;28;20036;-78
2023/02/19 09:04:40;;;;;;;3.97;2.28;;;8.50;99.90;;;;;;5071098;28;20056;-78
2023/02/19 09:07:08;;;;;;;5.35;2.88;;;8.20;99.90;;;;;;5069945;28;20029;-79
2023/02/19 09:09:36;;;;;;;5.32;3.00;;;8.20;99.90;;;;;;5053197;28;20068;-78
2023/02/19 09:12:07;;;;;;;6.35;3.15;;;7.80;99.90;;;;;;5069920;28;20762;-80
2023/02/19 09:14:33;;;;;;;6.07;2.88;;;7.90;99.90;;;;;;5056126;28;20047;-80
2023/02/19 09:17:00;;;;;;;8.55;3.33;;;7.70;99.90;;;;;;5071150;28;20040;-80
2023/02/19 09:19:26;;;;;;;4.07;2.28;;;7.70;99.90;;;;;;5071238;28;20124;-79
2023/02/19 09:21:52;;;;;;;10.18;2.78;;;7.60;99.90;;;;;;5071792;28;20352;-79
2023/02/19 09:24:17;;;;;;;7.15;2.67;;;7.60;99.90;;;;;;5070815;28;20033;-79
2023/02/19 09:26:43;;;;;;;4.75;2.22;;;7.60;99.90;;;;;;5053553;28;20040;-79
2023/02/19 09:29:08;;;;;;;5.63;2.05;;;7.50;99.90;;;;;;5053596;28;20242;-79
2023/02/19 09:31:34;;;;;;;5.53;1.67;;;7.50;99.90;;;;;;5069851;28;20083;-78
2023/02/19 09:34:00;;;;;;;8.52;3.03;;;7.60;99.90;;;;;;5070421;28;20044;-78
2023/02/19 09:36:25;;;;;;;6.97;1.63;;;7.70;99.90;;;;;;5069655;28;20044;-78
2023/02/19 09:38:52;;;;;;;5.20;1.77;;;7.70;99.90;;;;;;5069619;28;20040;-78
2023/02/19 09:41:27;;;;;;;3.50;1.70;;;7.90;99.90;;;;;;5069607;28;20420;-79
2023/02/19 09:43:53;;;;;;;6.63;2.40;;;8.10;99.90;;;;;;5069661;28;20033;-78
2023/02/19 09:46:33;;;;;;;4.47;1.90;;;8.20;99.90;;;;;;5069551;28;20050;-78
2023/02/19 09:49:10;;;;;;;4.95;1.80;;;8.30;99.90;;;;;;5070901;28;20036;-79
2023/02/19 09:51:38;;;;;;;5.80;1.02;;;8.20;99.90;;;;;;5069728;28;20029;-78
2023/02/19 09:54:09;;;;;;;6.32;1.20;;;8.30;99.90;;;;;;5069747;28;20056;-79
2023/02/19 09:56:35;;;;;;;4.65;0.98;;;8.10;99.90;;;;;;5070768;28;20123;-80
2023/02/19 09:59:00;;;;;;;4.38;1.02;;;8.00;99.90;;;;;;5070948;28;20465;-78
2023/02/19 10:01:32;;;;;;;2.45;1.00;;;7.90;99.90;;;;;;5070804;28;20032;-78
2023/02/19 10:03:57;;;;;;;3.67;0.82;;;7.80;99.90;;;;;;5069229;28;20035;-79
2023/02/19 10:06:25;;;;;;;5.57;1.25;;;7.80;99.90;;;;;;5070791;28;20036;-78
2023/02/19 10:09:05;;;;;;;4.25;1.48;;;7.90;99.90;;;;;;5070828;28;20033;-79
2023/02/19 10:11:30;;;;;;;2.17;1.30;;;8.00;99.90;;;;;;5071085;28;20039;-79
2023/02/19 10:14:12;;;;;;;4.53;1.15;;;8.00;99.90;;;;;;5068947;28;20491;-79
2023/02/19 10:16:41;;;;;;;3.38;1.38;;;8.00;99.90;;;;;;5070524;28;20044;-79
2023/02/19 10:19:13;;;;;;;4.82;1.33;;;8.10;99.90;;;;;;5069146;28;20500;-79
2023/02/19 10:21:40;;;;;;;1.67;0.67;;;8.10;99.90;;;;;;5070528;28;20047;-78
2023/02/19 10:24:07;;;;;;;3.35;0.77;;;8.20;99.90;;;;;;5068815;28;20043;-77
2023/02/19 10:26:35;;;;;;;2.55;0.75;;;8.20;99.90;;;;;;5069945;28;20082;-78
2023/02/19 10:29:04;;;;;;;2.88;0.70;;;8.20;99.90;;;;;;5070809;28;20045;-78
2023/02/19 10:31:31;;;;;;;1.42;0.63;;;8.00;99.90;;;;;;5068551;28;20072;-78
2023/02/19 10:33:59;;;;;;;1.83;0.90;;;8.00;99.90;;;;;;5051929;28;20512;-78
2023/02/19 10:36:32;;;;;;;2.70;0.70;;;7.90;99.90;;;;;;5057993;28;20056;-77
2023/02/19 10:39:04;;;;;;;2.63;0.77;;;7.90;99.90;;;;;;5059966;28;20037;-76
2023/02/19 10:41:30;;;;;;;3.58;1.00;;;8.00;99.90;;;;;;5051690;28;20060;-78
2023/02/19 10:44:13;;;;;;;5.45;1.27;;;8.00;99.90;;;;;;5061014;28;20025;-80
2023/02/19 10:46:45;;;;;;;3.15;0.85;;;7.90;99.90;;;;;;5065710;28;20044;-78
2023/02/19 10:49:26;;;;;;;3.63;0.90;;;7.70;99.90;;;;;;5075612;28;20045;-78
2023/02/19 10:51:54;;;;;;;7.03;1.15;;;7.80;99.90;;;;;;5061667;28;20071;-78
2023/02/19 10:54:27;;;;;;;1.98;1.00;;;7.90;99.90;;;;;;5069421;28;20500;-78
2023/02/19 10:56:53;;;;;;;3.20;1.00;;;8.00;99.90;;;;;;5058091;28;20147;-78
2023/02/19 10:59:27;;;;;;;5.30;1.55;;;8.00;99.90;;;;;;5066199;28;20531;-77
2023/02/19 11:01:53;;;;;;;2.55;0.70;;;8.10;99.90;;;;;;5065928;28;20043;-78
2023/02/19 11:04:19;;;;;;;3.33;1.30;;;8.20;99.90;;;;;;5057309;28;20563;-78
2023/02/19 11:06:45;;;;;;;2.13;0.90;;;8.40;99.90;;;;;;5069985;28;20076;-78
2023/02/19 11:09:37;;;;;;;3.72;1.15;;;8.40;99.90;;;;;;5060011;28;20032;-78
2023/02/19 11:12:04;;;;;;;4.40;1.30;;;8.50;99.90;;;;;;5041873;28;20116;-78
2023/02/19 11:14:32;;;;;;;3.03;1.27;;;8.60;99.90;;;;;;5069642;28;20184;-77
2023/02/19 11:17:01;;;;;;;1.60;0.63;;;8.60;99.90;;;;;;5057517;28;20040;-77
2023/02/19 11:19:47;;;;;;;3.72;0.77;;;8.60;99.90;;;;;;5046715;28;20056;-78
2023/02/19 11:22:31;;;;;;;4.28;1.08;;;8.60;99.90;;;;;;5068414;28;20040;-78
2023/02/19 11:25:16;;;;;;;1.65;0.85;;;8.60;99.90;;;;;;5056407;28;20553;-78
2023/02/19 11:28:02;;;;;;;2.88;0.90;;;8.60;99.90;;;;;;5062728;28;20037;-78
2023/02/19 11:30:37;;;;;;;5.57;1.15;;;8.50;99.90;;;;;;5066479;28;20495;-79
2023/02/19 11:33:15;;;;;;;2.03;0.85;;;8.50;99.90;;;;;;5069420;28;20051;-78
2023/02/19 11:35:41;;;;;;;2.50;0.80;;;8.40;99.90;;;;;;5073256;28;20040;-79
2023/02/19 11:38:10;;;;;;;3.13;1.45;;;8.50;99.90;;;;;;5073252;28;20111;-78
2023/02/19 11:41:18;;;;;;;4.43;0.98;;;8.50;99.90;;;;;;5071866;28;20563;-78
2023/02/19 11:44:08;;;;;;;2.72;0.80;;;8.50;99.90;;;;;;5072976;28;20083;-78
2023/02/19 11:47:18;;;;;;;5.53;0.70;;;8.40;99.90;;;;;;5071164;28;20040;-79
2023/02/19 11:50:01;;;;;;;3.47;0.98;;;8.50;99.90;;;;;;5062711;28;20508;-78
2023/02/19 11:52:30;;;;;;;3.53;0.63;;;8.60;99.90;;;;;;5071348;28;20059;-79
2023/02/19 11:55:21;;;;;;;4.95;0.70;;;8.70;99.90;;;;;;5071141;28;20041;-78
2023/02/19 11:58:00;;;;;;;3.95;0.90;;;8.90;99.90;;;;;;5072715;28;20050;-79
2023/02/19 12:00:29;;;;;;;4.45;0.90;;;9.00;99.90;;;;;;5071344;28;20045;-78
2023/02/19 12:03:17;;;;;;;2.15;1.20;;;8.90;99.90;;;;;;5071417;28;20064;-78
2023/02/19 12:06:30;;;;;;;1.70;0.63;;;9.10;99.90;;;;;;5071866;28;20510;-78
2023/02/19 12:09:14;;;;;;;2.75;0.52;;;9.00;99.90;;;;;;5069626;28;20043;-79
2023/02/19 12:11:48;;;;;;;;;;;8.90;99.90;;;;;;5070345;28;20044;-78
2023/02/19 12:14:45;;;;;;;2.67;0.60;;;8.70;99.90;;;;;;5071926;28;19916;-78
2023/02/19 12:17:34;;;;;;;3.58;0.75;;;8.60;99.90;;;;;;5069637;28;20047;-78
2023/02/19 12:20:08;;;;;;;3.67;1.15;;;8.70;99.90;;;;;;5070813;28;20098;-78
2023/02/19 12:23:00;;;;;;;2.17;0.70;;;8.70;99.90;;;;;;5070226;28;20029;-78
2023/02/19 12:25:41;;;;;;;3.88;0.90;;;8.70;99.90;;;;;;5069496;28;20423;-78
2023/02/19 12:28:44;;;;;;;2.70;0.73;;;8.60;99.90;;;;;;5069319;28;20076;-78
2023/02/19 12:31:34;;;;;;;6.90;1.15;;;8.70;99.90;;;;;;5067905;28;20052;-78
2023/02/19 12:34:18;;;;;;;4.30;0.60;;;8.70;99.90;;;;;;5066348;28;20511;-77
2023/02/19 12:37:14;;;;;;;2.47;0.80;;;8.90;99.90;;;;;;5071716;28;20044;-78
2023/02/19 12:40:08;;;;;;;4.95;0.73;;;8.70;99.90;;;;;;5071014;28;20040;-78
2023/02/19 12:43:00;;;;;;;2.65;0.82;;;8.80;99.90;;;;;;5071892;28;20071;-78
2023/02/19 12:45:33;;;;;;;4.80;0.98;;;8.90;99.90;;;;;;5070395;28;20037;-78
2023/02/19 12:47:59;;;;;;;3.80;0.73;;;8.80;99.90;;;;;;5070999;28;20040;-78
2023/02/19 12:50:26;;;;;;;3.55;0.93;;;8.90;99.90;;;;;;5070605;28;20582;-78
2023/02/19 12:53:24;;;;;;;2.58;0.80;;;8.90;99.90;;;;;;5071904;28;20115;-77
2023/02/19 12:55:51;;;;;;;2.05;0.70;;;8.80;99.90;;;;;;5053760;28;20044;-77
2023/02/19 12:58:31;;;;;;;3.47;1.02;;;8.80;99.90;;;;;;5053849;28;20055;-77
2023/02/19 13:00:58;;;;;;;3.60;1.02;;;8.80;99.90;;;;;;5071778;28;20040;-77
2023/02/19 13:03:36;;;;;;;3.80;0.80;;;8.90;99.90;;;;;;5071771;28;20445;-77
2023/02/19 13:06:32;;;;;;;3.08;0.70;;;8.90;99.90;;;;;;5070711;28;20067;-77
2023/02/19 13:09:07;;;;;;;2.28;0.80;;;8.90;99.90;;;;;;5053072;28;20036;-77
2023/02/19 13:12:00;;;;;;;5.82;1.02;;;8.90;99.90;;;;;;5069848;28;20044;-77
2023/02/19 13:14:28;;;;;;;2.35;0.70;;;9.00;99.90;;;;;;5070063;28;20120;-77
2023/02/19 13:17:00;;;;;;;4.22;1.60;;;8.80;99.90;;;;;;5070191;28;20036;-78
2023/02/19 13:19:25;;;;;;;3.47;0.82;;;9.00;99.90;;;;;;5070338;28;20076;-79
2023/02/19 13:24:53;;;;;;;5.22;0.80;;;9.00;99.90;;;;;;5069903;28;20509;-78
2023/02/19 13:27:36;;;;;;;4.75;0.88;;;8.90;99.90;;;;;;5070301;28;20051;-78
2023/02/19 13:30:27;;;;;;;1.65;0.70;;;8.90;99.90;;;;;;5070493;28;20117;-79
2023/02/19 13:33:01;;;;;;;4.63;0.82;;;8.90;99.90;;;;;;5053194;28;20119;-79
2023/02/19 13:35:42;;;;;;;3.10;0.70;;;8.80;99.90;;;;;;5069402;28;20095;-78
2023/02/19 13:38:11;;;;;;;3.63;0.68;;;8.80;99.90;;;;;;5067193;28;20048;-77
2023/02/19 13:40:41;;;;;;;3.20;0.60;;;8.80;99.90;;;;;;5069842;28;20036;-78